createdAt,value
2022-08-07T00:00:59.972Z,86.45
2022-08-07T00:04:15.416Z,86.36
2022-08-07T00:07:18.842Z,86.53
2022-08-07T00:10:26.024Z,86.62
2022-08-07T00:13:29.146Z,86.61
2022-08-07T00:16:31.285Z,86.88
2022-08-07T00:20:00.514Z,87.02
2022-08-07T00:22:54.975Z,86.89
2022-08-07T00:26:01.555Z,87.45
2022-08-07T00:29:09.840Z,87.71
2022-08-07T00:32:15.075Z,87.71
2022-08-07T00:35:23.105Z,87.98
2022-08-07T00:38:31.132Z,87.76
2022-08-07T00:41:37.257Z,88.34
2022-08-07T00:44:47.271Z,88.15
2022-08-07T00:48:08.106Z,88.50
2022-08-07T00:51:13.872Z,89.05
2022-08-07T00:54:19.902Z,89.40
2022-08-07T00:57:26.262Z,89.56
2022-08-07T01:00:28.775Z,89.58
2022-08-07T01:03:56.904Z,89.70
2022-08-07T01:06:56.621Z,90.02
2022-08-07T01:10:06.642Z,90.40
2022-08-07T01:13:16.464Z,90.32
2022-08-07T01:16:30.318Z,90.18
2022-08-07T01:19:34.324Z,90.08
2022-08-07T01:22:54.168Z,90.41
2022-08-07T01:26:05.059Z,90.40
2022-08-07T01:29:08.020Z,89.66
2022-08-07T01:32:12.329Z,90.02
2022-08-07T01:35:17.583Z,90.01
2022-08-07T01:38:24.869Z,90.12
2022-08-07T01:41:30.214Z,89.97
2022-08-07T01:44:37.328Z,89.87
2022-08-07T01:48:19.571Z,89.83
2022-08-07T01:51:58.631Z,89.84
2022-08-07T01:54:36.788Z,89.64
2022-08-07T01:58:06.069Z,89.50
2022-08-07T02:01:25.465Z,89.39
2022-08-07T02:04:55.787Z,89.43
2022-08-07T02:08:03.201Z,89.39
2022-08-07T02:11:30.974Z,89.21
2022-08-07T02:14:40.996Z,89.38
2022-08-07T02:17:53.606Z,89.47
2022-08-07T02:20:57.588Z,89.21
2022-08-07T02:24:00.485Z,89.42
2022-08-07T02:27:04.613Z,89.08
2022-08-07T02:30:12.323Z,88.54
2022-08-07T02:33:18.049Z,88.44
2022-08-07T02:36:29.081Z,88.57
2022-08-07T02:39:42.510Z,88.20
2022-08-07T02:42:51.808Z,88.33
2022-08-07T02:46:01.615Z,88.19
2022-08-07T02:49:06.203Z,88.26
2022-08-07T02:52:14.029Z,88.43
2022-08-07T02:55:27.585Z,88.60
2022-08-07T02:58:33.865Z,88.88
2022-08-07T03:01:41.782Z,88.69
2022-08-07T03:04:53.268Z,89.07
2022-08-07T03:08:07.120Z,89.08
2022-08-07T03:11:15.258Z,89.36
2022-08-07T03:14:22.527Z,88.74
2022-08-07T03:17:25.953Z,89.16
2022-08-07T03:20:29.995Z,88.90
2022-08-07T03:23:33.632Z,88.95
2022-08-07T03:27:00.189Z,89.05
2022-08-07T03:30:10.837Z,88.56
2022-08-07T03:33:20.353Z,88.91
2022-08-07T03:36:25.935Z,88.80
2022-08-07T03:39:46.456Z,89.13
2022-08-07T03:42:55.986Z,89.50
2022-08-07T03:45:59.611Z,89.07
2022-08-07T03:49:03.514Z,89.32
2022-08-07T03:52:22.898Z,90.18
2022-08-07T03:55:57.440Z,90.11
2022-08-07T03:59:08.494Z,90.23
2022-08-07T04:02:15.093Z,90.33
2022-08-07T04:05:20.762Z,90.71
2022-08-07T04:08:34.123Z,90.16
2022-08-07T04:12:21.091Z,90.10
2022-08-07T04:15:04.977Z,90.28
2022-08-07T04:18:56.588Z,89.93
2022-08-07T04:21:37.639Z,89.61
2022-08-07T04:24:41.623Z,90.01
2022-08-07T04:27:59.188Z,90.32
2022-08-07T04:31:04.676Z,89.84
2022-08-07T04:34:16.762Z,90.41
2022-08-07T04:37:20.731Z,90.10
2022-08-07T04:40:29.699Z,90.35
2022-08-07T04:44:09.922Z,90.98
2022-08-07T04:47:56.919Z,90.64
2022-08-07T04:51:02.272Z,91.24
2022-08-07T04:54:22.827Z,91.38
2022-08-07T04:58:12.099Z,91.26
2022-08-07T05:01:32.435Z,91.03
2022-08-07T05:04:50.251Z,90.77
2022-08-07T05:08:15.023Z,90.52
2022-08-07T05:11:24.286Z,90.63
2022-08-07T05:14:52.167Z,90.68
2022-08-07T05:18:08.492Z,90.11
2022-08-07T05:21:18.328Z,89.82
2022-08-07T05:24:41.392Z,88.67
2022-08-07T05:28:16.246Z,88.41
2022-08-07T05:31:14.552Z,87.87
2022-08-07T05:34:21.037Z,87.35
2022-08-07T05:37:29.802Z,86.23
2022-08-07T05:40:50.591Z,85.90
2022-08-07T05:44:12.127Z,85.62
2022-08-07T05:47:20.925Z,84.78
2022-08-07T05:50:42.822Z,84.77
2022-08-07T05:54:13.134Z,84.67
2022-08-07T05:57:09.613Z,84.00
2022-08-07T06:00:16.869Z,84.13
2022-08-07T06:03:47.055Z,83.24
2022-08-07T06:06:56.400Z,82.65
2022-08-07T06:10:05.190Z,82.82
2022-08-07T06:13:13.664Z,82.84
2022-08-07T06:16:18.811Z,82.53
2022-08-07T06:19:52.155Z,82.46
2022-08-07T06:23:02.397Z,82.70
2022-08-07T06:26:16.717Z,81.87
2022-08-07T06:29:18.404Z,81.22
2022-08-07T06:32:21.986Z,81.14
2022-08-07T06:35:45.518Z,80.59
2022-08-07T06:38:58.793Z,78.40
2022-08-07T06:42:19.512Z,77.31
2022-08-07T06:46:01.129Z,77.33
2022-08-07T06:49:04.933Z,77.17
2022-08-07T06:52:11.424Z,77.57
2022-08-07T06:55:33.997Z,76.04
2022-08-07T07:00:13.372Z,75.14
2022-08-07T07:02:53.942Z,74.90
2022-08-07T07:06:05.032Z,74.03
2022-08-07T07:09:24.059Z,73.29
2022-08-07T07:12:48.821Z,72.53
2022-08-07T07:16:03.228Z,73.12
2022-08-07T07:19:55.311Z,73.07
2022-08-07T07:22:36.215Z,72.55
2022-08-07T07:26:32.529Z,72.12
2022-08-07T07:29:38.866Z,71.32
2022-08-07T07:32:42.651Z,71.40
2022-08-07T07:36:04.436Z,71.61
2022-08-07T07:39:09.089Z,71.21
2022-08-07T07:42:13.935Z,70.62
2022-08-07T07:45:24.503Z,70.09
2022-08-07T07:48:45.942Z,70.05
2022-08-07T07:51:57.542Z,69.18
2022-08-07T07:55:03.398Z,69.00
2022-08-07T07:58:05.977Z,68.03
2022-08-07T08:04:33.622Z,67.40
2022-08-07T08:07:42.142Z,67.14
2022-08-07T08:10:53.588Z,66.00
2022-08-07T08:13:55.898Z,65.97
2022-08-07T08:17:55.759Z,64.54
2022-08-07T08:20:23.721Z,63.25
2022-08-07T08:23:50.249Z,63.05
2022-08-07T08:27:09.634Z,63.07
2022-08-07T08:30:14.296Z,62.68
2022-08-07T08:33:20.561Z,61.69
2022-08-07T08:36:30.628Z,61.53
2022-08-07T08:39:39.081Z,61.00
2022-08-07T08:43:04.734Z,60.83
2022-08-07T08:46:17.122Z,60.56
2022-08-07T08:49:46.912Z,59.37
2022-08-07T08:53:40.432Z,58.61
2022-08-07T08:56:49.829Z,59.03
2022-08-07T09:00:01.704Z,59.77
2022-08-07T09:03:47.410Z,58.46
2022-08-07T09:07:00.646Z,58.14
2022-08-07T09:10:22.462Z,57.58
2022-08-07T09:13:46.274Z,57.85
2022-08-07T09:17:07.841Z,57.81
2022-08-07T09:20:58.612Z,57.23
2022-08-07T09:24:31.146Z,56.63
2022-08-07T09:28:02.966Z,55.30
2022-08-07T09:31:38.289Z,55.47
2022-08-07T09:36:04.464Z,54.91
2022-08-07T09:39:11.397Z,54.81
2022-08-07T09:43:00.542Z,53.61
2022-08-07T09:47:51.360Z,53.08
2022-08-07T09:50:19.210Z,52.78
2022-08-07T09:53:26.732Z,53.48
2022-08-07T09:57:18.702Z,52.66
2022-08-07T10:00:30.035Z,52.57
2022-08-07T10:04:05.879Z,53.17
2022-08-07T10:07:53.555Z,53.55
2022-08-07T10:12:00.318Z,53.54
2022-08-07T10:14:56.997Z,52.33
2022-08-07T10:18:08.560Z,51.95
2022-08-07T10:22:11.994Z,50.72
2022-08-07T10:25:23.888Z,50.44
2022-08-07T10:29:21.651Z,51.01
2022-08-07T10:32:53.725Z,51.06
2022-08-07T10:36:29.256Z,50.29
2022-08-07T10:40:09.266Z,49.99
2022-08-07T10:43:29.833Z,50.36
2022-08-07T10:46:51.126Z,50.18
2022-08-07T10:50:05.616Z,50.66
2022-08-07T10:53:21.522Z,49.98
2022-08-07T10:57:13.000Z,48.08
2022-08-07T11:00:39.774Z,48.05
2022-08-07T11:04:23.372Z,47.08
2022-08-07T11:07:59.662Z,47.19
2022-08-07T11:11:15.580Z,47.09
2022-08-07T11:14:43.411Z,46.14
2022-08-07T11:17:54.021Z,46.86
2022-08-07T11:21:14.093Z,46.68
2022-08-07T11:24:38.984Z,44.60
2022-08-07T11:28:15.323Z,45.57
2022-08-07T11:31:35.337Z,45.08
2022-08-07T11:34:50.002Z,43.96
2022-08-07T11:38:28.270Z,44.08
2022-08-07T11:42:02.362Z,44.77
2022-08-07T11:45:35.335Z,44.46
2022-08-07T11:48:46.685Z,44.70
2022-08-07T11:52:09.205Z,44.29
2022-08-07T11:56:24.841Z,43.93
2022-08-07T12:00:08.297Z,43.98
2022-08-07T12:02:52.403Z,43.55
2022-08-07T12:06:37.013Z,43.60
2022-08-07T12:10:05.582Z,42.82
2022-08-07T12:13:39.200Z,42.14
2022-08-07T12:17:07.517Z,40.94
2022-08-07T12:20:30.087Z,41.45
2022-08-07T12:24:06.705Z,42.16
2022-08-07T12:27:18.659Z,42.15
2022-08-07T12:30:36.285Z,41.95
2022-08-07T12:33:56.181Z,41.01
2022-08-07T12:37:08.158Z,40.99
2022-08-07T12:40:46.932Z,40.91
2022-08-07T12:44:03.401Z,40.76
2022-08-07T12:47:07.021Z,40.97
2022-08-07T12:50:49.374Z,40.81
2022-08-07T12:54:38.123Z,40.98
2022-08-07T12:58:00.738Z,41.12
2022-08-07T13:01:32.175Z,40.52
2022-08-07T13:06:02.848Z,38.99
2022-08-07T13:09:12.711Z,39.25
2022-08-07T13:12:35.312Z,39.00
2022-08-07T13:15:47.711Z,38.52
2022-08-07T13:19:00.973Z,37.82
2022-08-07T13:22:27.570Z,38.73
2022-08-07T13:25:38.759Z,38.55
2022-08-07T13:28:58.270Z,37.45
2022-08-07T13:32:06.379Z,36.85
2022-08-07T13:35:59.631Z,36.21
2022-08-07T13:40:32.904Z,35.17
2022-08-07T13:42:56.393Z,36.06
2022-08-07T13:46:20.862Z,35.52
2022-08-07T13:50:33.118Z,35.55
2022-08-07T13:52:48.687Z,35.05
2022-08-07T13:55:54.518Z,34.58
2022-08-07T13:59:02.518Z,34.48
2022-08-07T14:02:12.865Z,34.26
2022-08-07T14:05:23.120Z,33.61
2022-08-07T14:08:25.362Z,33.88
2022-08-07T14:11:53.140Z,33.58
2022-08-07T14:14:56.368Z,33.42
2022-08-07T14:18:27.259Z,33.23
2022-08-07T14:22:41.208Z,33.04
2022-08-07T14:25:15.778Z,33.38
2022-08-07T14:28:19.138Z,33.54
2022-08-07T14:31:23.968Z,33.67
2022-08-07T14:34:30.263Z,33.42
2022-08-07T14:37:38.964Z,33.45
2022-08-07T14:40:48.630Z,34.01
2022-08-07T14:43:57.455Z,33.82
2022-08-07T14:47:08.907Z,33.41
2022-08-07T14:50:19.785Z,33.29
2022-08-07T14:56:48.215Z,33.14
2022-08-07T15:00:05.154Z,33.36
2022-08-07T15:03:17.449Z,33.28
2022-08-07T15:06:25.210Z,32.72
2022-08-07T15:09:59.254Z,32.43
2022-08-07T15:12:54.968Z,31.48
2022-08-07T15:20:30.172Z,32.16
2022-08-07T15:23:17.033Z,31.94
2022-08-07T15:26:33.352Z,31.95
2022-08-07T15:30:04.836Z,31.96
2022-08-07T15:33:05.616Z,32.24
2022-08-07T15:37:03.459Z,32.54
2022-08-07T15:39:58.304Z,32.36
2022-08-07T15:43:53.013Z,32.60
2022-08-07T15:46:51.606Z,32.47
2022-08-07T15:50:04.095Z,32.84
2022-08-07T15:53:51.740Z,32.91
2022-08-07T15:56:59.743Z,32.32
2022-08-07T16:00:04.347Z,32.45
2022-08-07T16:03:46.327Z,32.33
2022-08-07T16:07:00.612Z,32.59
2022-08-07T16:10:25.173Z,32.62
2022-08-07T16:13:58.917Z,32.44
2022-08-07T16:18:02.587Z,32.26
2022-08-07T16:21:57.153Z,32.73
2022-08-07T16:24:40.774Z,32.74
2022-08-07T16:30:07.581Z,33.53
2022-08-07T16:32:00.548Z,34.01
2022-08-07T16:35:58.527Z,33.94
2022-08-07T16:39:17.807Z,33.68
2022-08-07T16:43:05.945Z,33.83
2022-08-07T16:50:27.886Z,34.30
2022-08-07T16:54:02.197Z,34.64
2022-08-07T16:56:55.235Z,35.24
2022-08-07T17:00:15.101Z,35.58
2022-08-07T17:03:57.679Z,35.60
2022-08-07T17:07:04.117Z,36.62
2022-08-07T17:10:32.350Z,36.95
2022-08-07T17:14:17.829Z,36.99
2022-08-07T17:17:16.824Z,37.66
2022-08-07T17:20:35.514Z,37.79
2022-08-07T17:23:59.920Z,37.49
2022-08-07T17:27:10.143Z,37.03
2022-08-07T17:30:27.247Z,37.57
2022-08-07T17:34:08.891Z,37.59
2022-08-07T17:37:09.638Z,37.86
2022-08-07T17:40:57.342Z,38.36
2022-08-07T17:44:14.899Z,38.32
2022-08-07T17:47:56.575Z,39.11
2022-08-07T17:51:04.456Z,39.29
2022-08-07T17:54:40.140Z,39.69
2022-08-07T17:57:58.891Z,39.92
2022-08-07T18:01:21.536Z,40.20
2022-08-07T18:04:34.474Z,40.41
2022-08-07T18:07:36.615Z,40.20
2022-08-07T18:12:07.996Z,40.02
2022-08-07T18:14:23.832Z,40.81
2022-08-07T18:18:47.599Z,41.38
2022-08-07T18:21:37.300Z,41.10
2022-08-07T18:24:50.982Z,41.36
2022-08-07T18:28:35.864Z,41.59
2022-08-07T18:31:52.540Z,41.57
2022-08-07T18:35:16.071Z,41.86
2022-08-07T18:38:55.110Z,42.70
2022-08-07T18:42:22.377Z,43.06
2022-08-07T18:46:25.422Z,43.41
2022-08-07T18:50:30.926Z,43.58
2022-08-07T18:53:16.318Z,44.03
2022-08-07T18:56:39.266Z,44.42
2022-08-07T19:00:33.046Z,45.83
2022-08-07T19:04:15.912Z,45.96
2022-08-07T19:07:52.018Z,47.04
2022-08-07T19:11:35.764Z,47.45
2022-08-07T19:14:51.091Z,47.69
2022-08-07T19:18:18.280Z,48.30
2022-08-07T19:22:04.454Z,48.84
2022-08-07T19:26:22.607Z,48.67
2022-08-07T19:30:57.473Z,49.02
2022-08-07T19:32:18.761Z,49.56
2022-08-07T19:35:33.301Z,49.98
2022-08-07T19:38:53.380Z,50.66
2022-08-07T19:42:08.059Z,50.98
2022-08-07T19:46:01.134Z,51.77
2022-08-07T19:48:54.470Z,52.30
2022-08-07T19:52:00.258Z,52.82
2022-08-07T19:55:03.147Z,53.08
2022-08-07T19:58:14.304Z,53.41
2022-08-07T20:01:19.166Z,53.70
2022-08-07T20:04:30.950Z,54.25
2022-08-07T20:07:46.536Z,54.52
2022-08-07T20:11:02.177Z,55.38
2022-08-07T20:14:07.272Z,55.51
2022-08-07T20:17:25.989Z,56.05
2022-08-07T20:20:30.096Z,56.37
2022-08-07T20:23:41.788Z,56.87
2022-08-07T20:26:52.403Z,57.28
2022-08-07T20:30:00.309Z,57.78
2022-08-07T20:33:05.387Z,58.04
2022-08-07T20:36:21.491Z,58.63
2022-08-07T20:40:32.590Z,59.33
2022-08-07T20:43:47.494Z,58.89
2022-08-07T20:47:05.708Z,59.14
2022-08-07T20:50:12.297Z,59.47
2022-08-07T20:53:17.500Z,59.96
2022-08-07T21:01:19.585Z,61.71
2022-08-07T21:04:29.810Z,62.07
2022-08-07T21:07:34.699Z,62.27
2022-08-07T21:10:37.900Z,62.79
2022-08-07T21:14:29.505Z,63.11
2022-08-07T21:18:03.270Z,63.48
2022-08-07T21:20:47.993Z,63.55
2022-08-07T21:24:15.267Z,64.57
2022-08-07T21:27:40.086Z,64.21
2022-08-07T21:31:16.884Z,64.63
2022-08-07T21:34:46.215Z,64.61
2022-08-07T21:38:00.282Z,64.42
2022-08-07T21:41:10.757Z,64.81
2022-08-07T21:44:44.795Z,65.73
2022-08-07T21:48:26.843Z,65.59
2022-08-07T21:51:32.163Z,65.28
2022-08-07T21:54:34.145Z,65.44
2022-08-07T21:57:53.639Z,66.05
2022-08-07T22:00:59.664Z,65.31
2022-08-07T22:04:07.644Z,65.46
2022-08-07T22:07:19.083Z,65.39
2022-08-07T22:10:32.929Z,65.43
2022-08-07T22:13:51.233Z,65.45
2022-08-07T22:17:00.984Z,65.50
2022-08-07T22:20:23.480Z,66.08
2022-08-07T22:23:32.519Z,66.12
2022-08-07T22:26:44.659Z,66.14
2022-08-07T22:29:58.854Z,66.60
2022-08-07T22:33:09.329Z,66.90
2022-08-07T22:36:22.758Z,66.65
2022-08-07T22:39:35.194Z,67.23
2022-08-07T22:43:03.351Z,67.32
2022-08-07T22:47:02.461Z,67.71
2022-08-07T22:50:07.046Z,67.56
2022-08-07T22:54:05.480Z,67.73
2022-08-07T22:57:25.734Z,68.03
2022-08-07T23:00:59.616Z,68.51
2022-08-07T23:04:32.982Z,68.36
2022-08-07T23:08:22.365Z,68.93
2022-08-07T23:11:45.690Z,68.74
2022-08-07T23:16:05.696Z,69.24
2022-08-07T23:19:48.062Z,69.49
2022-08-07T23:24:06.216Z,69.93
2022-08-07T23:27:18.014Z,69.90
2022-08-07T23:31:11.886Z,70.14
2022-08-07T23:34:38.085Z,70.74
2022-08-07T23:38:19.275Z,71.36
2022-08-07T23:41:47.513Z,71.36
2022-08-07T23:45:32.833Z,71.90
2022-08-07T23:49:19.436Z,71.88
2022-08-07T23:52:59.616Z,72.39
2022-08-07T23:56:15.494Z,72.33
